Terminal Aerodrome Forecast
Issued by NWS Oklahoma City, OK

Home | Current Version | Previous Version | Text Only | Print | Product List | Glossary On
Versions: 1 2 3 4 5 6 7 8 9 10 11 12 13 14 15 16 17 18 19 20 21 22 23 24 25 26 27 28 29 30 31
696
FTUS44 KOUN 200520
TAFOUN
TAF
KOUN 200520Z 2006/2106 13014KT P6SM OVC008
      TEMPO 2006/2008 2SM TSRA BR OVC008CB
     FM200900 19008KT P6SM BKN030 OVC100
     FM201600 22013KT P6SM BKN250
     FM202100 27010KT P6SM SCT250=

USA.gov is the U.S. government's official web portal to all federal, state and local government web resources and services.